sensor_id;sensor_type;location;lat;lon;timestamp;P1;durP1;ratioP1;P2;durP2;ratioP2
20611;SDS011;10465;42.686;23.364;2023-07-28T00:01:55;5.20;;;4.70;;
20611;SDS011;10465;42.686;23.364;2023-07-28T00:04:20;4.85;;;4.45;;
20611;SDS011;10465;42.686;23.364;2023-07-28T00:06:45;8.25;;;4.63;;
20611;SDS011;10465;42.686;23.364;2023-07-28T00:09:11;6.90;;;5.10;;
20611;SDS011;10465;42.686;23.364;2023-07-28T00:11:36;5.55;;;5.03;;
20611;SDS011;10465;42.686;23.364;2023-07-28T00:14:02;5.50;;;5.03;;
20611;SDS011;10465;42.686;23.364;2023-07-28T00:16:28;5.30;;;4.80;;
20611;SDS011;10465;42.686;23.364;2023-07-28T00:18:53;5.30;;;4.57;;
20611;SDS011;10465;42.686;23.364;2023-07-28T00:21:18;5.07;;;4.57;;
20611;SDS011;10465;42.686;23.364;2023-07-28T00:23:44;6.30;;;4.60;;
20611;SDS011;10465;42.686;23.364;2023-07-28T00:26:10;5.63;;;5.13;;
20611;SDS011;10465;42.686;23.364;2023-07-28T00:28:35;7.75;;;5.38;;
20611;SDS011;10465;42.686;23.364;2023-07-28T00:31:00;7.25;;;5.38;;
20611;SDS011;10465;42.686;23.364;2023-07-28T00:33:26;6.20;;;5.65;;
20611;SDS011;10465;42.686;23.364;2023-07-28T00:35:52;5.63;;;5.03;;
20611;SDS011;10465;42.686;23.364;2023-07-28T00:38:18;7.20;;;5.20;;
20611;SDS011;10465;42.686;23.364;2023-07-28T00:40:44;6.35;;;5.50;;
20611;SDS011;10465;42.686;23.364;2023-07-28T00:43:09;5.72;;;5.22;;
20611;SDS011;10465;42.686;23.364;2023-07-28T00:45:35;5.63;;;4.40;;
20611;SDS011;10465;42.686;23.364;2023-07-28T00:48:00;6.13;;;4.60;;
20611;SDS011;10465;42.686;23.364;2023-07-28T00:50:26;6.05;;;5.45;;
20611;SDS011;10465;42.686;23.364;2023-07-28T00:52:52;5.85;;;5.25;;
20611;SDS011;10465;42.686;23.364;2023-07-28T00:55:19;5.32;;;4.85;;
20611;SDS011;10465;42.686;23.364;2023-07-28T00:57:47;6.03;;;5.20;;
20611;SDS011;10465;42.686;23.364;2023-07-28T01:00:12;5.32;;;4.65;;
20611;SDS011;10465;42.686;23.364;2023-07-28T01:02:38;6.80;;;4.90;;
20611;SDS011;10465;42.686;23.364;2023-07-28T01:05:04;5.65;;;5.15;;
20611;SDS011;10465;42.686;23.364;2023-07-28T01:07:30;7.00;;;5.65;;
20611;SDS011;10465;42.686;23.364;2023-07-28T01:10:05;5.90;;;5.32;;
20611;SDS011;10465;42.686;23.364;2023-07-28T01:12:35;7.80;;;5.32;;
20611;SDS011;10465;42.686;23.364;2023-07-28T01:15:01;5.50;;;4.90;;
20611;SDS011;10465;42.686;23.364;2023-07-28T01:17:26;6.70;;;5.00;;
20611;SDS011;10465;42.686;23.364;2023-07-28T01:19:52;8.65;;;4.70;;
20611;SDS011;10465;42.686;23.364;2023-07-28T01:24:51;6.97;;;5.15;;
20611;SDS011;10465;42.686;23.364;2023-07-28T01:27:28;6.45;;;5.35;;
20611;SDS011;10465;42.686;23.364;2023-07-28T01:29:54;6.75;;;5.15;;
20611;SDS011;10465;42.686;23.364;2023-07-28T01:32:19;4.70;;;4.30;;
20611;SDS011;10465;42.686;23.364;2023-07-28T01:34:45;5.05;;;4.30;;
20611;SDS011;10465;42.686;23.364;2023-07-28T01:37:10;7.93;;;4.55;;
20611;SDS011;10465;42.686;23.364;2023-07-28T01:39:36;5.10;;;4.40;;
20611;SDS011;10465;42.686;23.364;2023-07-28T01:42:01;6.38;;;4.28;;
20611;SDS011;10465;42.686;23.364;2023-07-28T01:44:27;5.95;;;4.40;;
20611;SDS011;10465;42.686;23.364;2023-07-28T01:46:53;4.88;;;4.32;;
20611;SDS011;10465;42.686;23.364;2023-07-28T01:49:19;7.28;;;4.35;;
20611;SDS011;10465;42.686;23.364;2023-07-28T01:51:45;5.13;;;4.00;;
20611;SDS011;10465;42.686;23.364;2023-07-28T01:54:10;4.15;;;3.70;;
20611;SDS011;10465;42.686;23.364;2023-07-28T01:56:36;4.63;;;3.33;;
20611;SDS011;10465;42.686;23.364;2023-07-28T01:59:01;3.83;;;3.40;;
20611;SDS011;10465;42.686;23.364;2023-07-28T02:01:27;4.70;;;3.20;;
20611;SDS011;10465;42.686;23.364;2023-07-28T02:03:52;3.88;;;3.40;;
20611;SDS011;10465;42.686;23.364;2023-07-28T02:06:18;4.35;;;3.60;;
20611;SDS011;10465;42.686;23.364;2023-07-28T02:08:43;4.50;;;3.22;;
20611;SDS011;10465;42.686;23.364;2023-07-28T02:11:09;3.67;;;3.38;;
20611;SDS011;10465;42.686;23.364;2023-07-28T02:13:34;5.07;;;4.10;;
20611;SDS011;10465;42.686;23.364;2023-07-28T02:16:00;4.00;;;3.65;;
20611;SDS011;10465;42.686;23.364;2023-07-28T02:18:25;4.63;;;3.90;;
20611;SDS011;10465;42.686;23.364;2023-07-28T02:20:51;4.30;;;3.90;;
20611;SDS011;10465;42.686;23.364;2023-07-28T02:23:16;4.07;;;3.63;;
20611;SDS011;10465;42.686;23.364;2023-07-28T02:25:41;4.90;;;4.50;;
20611;SDS011;10465;42.686;23.364;2023-07-28T02:28:08;4.25;;;3.85;;
20611;SDS011;10465;42.686;23.364;2023-07-28T02:30:35;3.97;;;3.53;;
20611;SDS011;10465;42.686;23.364;2023-07-28T02:33:00;6.75;;;4.00;;
20611;SDS011;10465;42.686;23.364;2023-07-28T02:35:25;4.32;;;4.00;;
20611;SDS011;10465;42.686;23.364;2023-07-28T02:37:51;4.20;;;3.80;;
20611;SDS011;10465;42.686;23.364;2023-07-28T02:40:16;5.47;;;4.00;;
20611;SDS011;10465;42.686;23.364;2023-07-28T02:42:42;5.78;;;4.05;;
20611;SDS011;10465;42.686;23.364;2023-07-28T02:45:07;4.60;;;4.20;;
20611;SDS011;10465;42.686;23.364;2023-07-28T02:47:34;6.10;;;3.85;;
20611;SDS011;10465;42.686;23.364;2023-07-28T02:50:00;4.00;;;3.70;;
20611;SDS011;10465;42.686;23.364;2023-07-28T02:52:25;5.20;;;3.85;;
20611;SDS011;10465;42.686;23.364;2023-07-28T02:54:51;5.80;;;3.60;;
20611;SDS011;10465;42.686;23.364;2023-07-28T02:57:16;4.30;;;3.42;;
20611;SDS011;10465;42.686;23.364;2023-07-28T02:59:42;5.55;;;3.30;;
20611;SDS011;10465;42.686;23.364;2023-07-28T03:02:07;5.00;;;3.28;;
20611;SDS011;10465;42.686;23.364;2023-07-28T03:04:32;4.97;;;2.97;;
20611;SDS011;10465;42.686;23.364;2023-07-28T03:06:58;3.65;;;3.20;;
20611;SDS011;10465;42.686;23.364;2023-07-28T03:09:23;3.55;;;3.25;;
20611;SDS011;10465;42.686;23.364;2023-07-28T03:11:49;3.88;;;3.20;;
20611;SDS011;10465;42.686;23.364;2023-07-28T03:14:14;4.03;;;3.30;;
20611;SDS011;10465;42.686;23.364;2023-07-28T03:16:41;3.65;;;3.35;;
20611;SDS011;10465;42.686;23.364;2023-07-28T03:19:07;4.20;;;3.22;;
20611;SDS011;10465;42.686;23.364;2023-07-28T03:21:32;4.80;;;3.72;;
20611;SDS011;10465;42.686;23.364;2023-07-28T03:23:58;6.18;;;4.32;;
20611;SDS011;10465;42.686;23.364;2023-07-28T03:26:23;6.35;;;4.45;;
20611;SDS011;10465;42.686;23.364;2023-07-28T03:28:49;4.68;;;4.03;;
20611;SDS011;10465;42.686;23.364;2023-07-28T03:31:14;4.47;;;4.07;;
20611;SDS011;10465;42.686;23.364;2023-07-28T03:33:40;7.13;;;4.82;;
20611;SDS011;10465;42.686;23.364;2023-07-28T03:36:05;6.93;;;4.68;;
20611;SDS011;10465;42.686;23.364;2023-07-28T03:38:30;5.97;;;4.35;;
20611;SDS011;10465;42.686;23.364;2023-07-28T03:40:56;6.53;;;4.90;;
20611;SDS011;10465;42.686;23.364;2023-07-28T03:43:21;10.20;;;4.57;;
20611;SDS011;10465;42.686;23.364;2023-07-28T03:45:47;6.60;;;4.43;;
20611;SDS011;10465;42.686;23.364;2023-07-28T03:48:12;5.88;;;4.30;;
20611;SDS011;10465;42.686;23.364;2023-07-28T03:50:38;7.07;;;4.85;;
20611;SDS011;10465;42.686;23.364;2023-07-28T03:53:03;4.95;;;4.47;;
20611;SDS011;10465;42.686;23.364;2023-07-28T03:55:29;7.93;;;4.88;;
20611;SDS011;10465;42.686;23.364;2023-07-28T03:57:54;8.88;;;5.28;;
20611;SDS011;10465;42.686;23.364;2023-07-28T04:00:20;13.80;;;6.28;;
20611;SDS011;10465;42.686;23.364;2023-07-28T04:02:45;8.77;;;5.00;;
20611;SDS011;10465;42.686;23.364;2023-07-28T04:05:13;9.23;;;5.40;;
20611;SDS011;10465;42.686;23.364;2023-07-28T04:07:40;8.52;;;5.15;;
20611;SDS011;10465;42.686;23.364;2023-07-28T04:10:05;8.57;;;5.35;;
20611;SDS011;10465;42.686;23.364;2023-07-28T04:12:31;5.88;;;4.90;;
20611;SDS011;10465;42.686;23.364;2023-07-28T04:14:58;8.15;;;5.05;;
20611;SDS011;10465;42.686;23.364;2023-07-28T04:17:24;9.02;;;5.35;;
20611;SDS011;10465;42.686;23.364;2023-07-28T04:19:50;10.07;;;5.07;;
20611;SDS011;10465;42.686;23.364;2023-07-28T04:22:16;7.47;;;5.10;;
20611;SDS011;10465;42.686;23.364;2023-07-28T04:24:46;6.60;;;5.55;;
20611;SDS011;10465;42.686;23.364;2023-07-28T04:27:13;9.18;;;5.65;;
20611;SDS011;10465;42.686;23.364;2023-07-28T04:29:40;10.40;;;5.82;;
20611;SDS011;10465;42.686;23.364;2023-07-28T04:32:06;12.65;;;5.93;;
20611;SDS011;10465;42.686;23.364;2023-07-28T04:34:35;7.85;;;5.55;;
20611;SDS011;10465;42.686;23.364;2023-07-28T04:37:00;9.38;;;5.25;;
20611;SDS011;10465;42.686;23.364;2023-07-28T04:39:27;10.65;;;6.38;;
20611;SDS011;10465;42.686;23.364;2023-07-28T04:41:52;7.80;;;5.90;;
20611;SDS011;10465;42.686;23.364;2023-07-28T04:44:19;8.32;;;5.35;;
20611;SDS011;10465;42.686;23.364;2023-07-28T04:46:45;7.30;;;5.78;;
20611;SDS011;10465;42.686;23.364;2023-07-28T04:49:13;6.68;;;5.50;;
20611;SDS011;10465;42.686;23.364;2023-07-28T04:51:39;8.63;;;5.50;;
20611;SDS011;10465;42.686;23.364;2023-07-28T04:54:09;7.93;;;5.75;;
20611;SDS011;10465;42.686;23.364;2023-07-28T04:56:35;7.63;;;5.60;;
20611;SDS011;10465;42.686;23.364;2023-07-28T04:59:00;9.80;;;5.57;;
20611;SDS011;10465;42.686;23.364;2023-07-28T05:01:25;8.95;;;5.82;;
20611;SDS011;10465;42.686;23.364;2023-07-28T05:03:51;8.20;;;5.70;;
20611;SDS011;10465;42.686;23.364;2023-07-28T05:06:19;8.52;;;5.63;;
20611;SDS011;10465;42.686;23.364;2023-07-28T05:08:44;6.32;;;4.88;;
20611;SDS011;10465;42.686;23.364;2023-07-28T05:11:09;7.82;;;5.55;;
20611;SDS011;10465;42.686;23.364;2023-07-28T05:13:36;7.00;;;4.95;;
20611;SDS011;10465;42.686;23.364;2023-07-28T05:16:02;7.63;;;5.22;;
20611;SDS011;10465;42.686;23.364;2023-07-28T05:18:27;8.45;;;5.75;;
20611;SDS011;10465;42.686;23.364;2023-07-28T05:20:55;7.65;;;5.22;;
20611;SDS011;10465;42.686;23.364;2023-07-28T05:23:21;6.50;;;5.18;;
20611;SDS011;10465;42.686;23.364;2023-07-28T05:25:47;8.40;;;5.47;;
20611;SDS011;10465;42.686;23.364;2023-07-28T05:28:12;8.10;;;5.63;;
20611;SDS011;10465;42.686;23.364;2023-07-28T05:30:38;8.15;;;5.20;;
20611;SDS011;10465;42.686;23.364;2023-07-28T05:33:03;8.73;;;5.50;;
20611;SDS011;10465;42.686;23.364;2023-07-28T05:35:30;9.93;;;5.93;;
20611;SDS011;10465;42.686;23.364;2023-07-28T05:37:55;10.30;;;5.95;;
20611;SDS011;10465;42.686;23.364;2023-07-28T05:40:21;10.88;;;7.00;;
20611;SDS011;10465;42.686;23.364;2023-07-28T05:42:47;10.25;;;6.22;;
20611;SDS011;10465;42.686;23.364;2023-07-28T05:45:12;9.40;;;6.60;;
20611;SDS011;10465;42.686;23.364;2023-07-28T05:47:38;8.38;;;5.90;;
20611;SDS011;10465;42.686;23.364;2023-07-28T05:50:04;12.57;;;7.53;;
20611;SDS011;10465;42.686;23.364;2023-07-28T05:52:30;9.10;;;6.63;;
20611;SDS011;10465;42.686;23.364;2023-07-28T05:54:56;18.17;;;11.23;;
20611;SDS011;10465;42.686;23.364;2023-07-28T05:57:22;17.98;;;9.50;;
20611;SDS011;10465;42.686;23.364;2023-07-28T05:59:47;14.00;;;12.55;;
20611;SDS011;10465;42.686;23.364;2023-07-28T06:02:13;13.65;;;12.20;;
20611;SDS011;10465;42.686;23.364;2023-07-28T06:04:39;20.67;;;15.25;;
20611;SDS011;10465;42.686;23.364;2023-07-28T06:07:06;14.05;;;11.60;;
20611;SDS011;10465;42.686;23.364;2023-07-28T06:09:31;9.90;;;9.00;;
20611;SDS011;10465;42.686;23.364;2023-07-28T06:11:58;10.85;;;8.75;;
20611;SDS011;10465;42.686;23.364;2023-07-28T06:14:23;9.77;;;6.80;;
20611;SDS011;10465;42.686;23.364;2023-07-28T06:16:49;7.05;;;6.30;;
20611;SDS011;10465;42.686;23.364;2023-07-28T06:19:16;12.18;;;7.35;;
20611;SDS011;10465;42.686;23.364;2023-07-28T06:21:48;9.88;;;6.95;;
20611;SDS011;10465;42.686;23.364;2023-07-28T06:24:14;13.30;;;7.57;;
20611;SDS011;10465;42.686;23.364;2023-07-28T06:26:40;14.25;;;9.27;;
20611;SDS011;10465;42.686;23.364;2023-07-28T06:29:05;9.73;;;7.82;;
20611;SDS011;10465;42.686;23.364;2023-07-28T06:31:30;7.75;;;7.05;;
20611;SDS011;10465;42.686;23.364;2023-07-28T06:34:00;14.27;;;7.85;;
20611;SDS011;10465;42.686;23.364;2023-07-28T06:36:26;8.55;;;7.38;;
20611;SDS011;10465;42.686;23.364;2023-07-28T06:38:52;7.38;;;6.68;;
20611;SDS011;10465;42.686;23.364;2023-07-28T06:41:20;8.73;;;6.15;;
20611;SDS011;10465;42.686;23.364;2023-07-28T06:43:46;9.05;;;5.80;;
20611;SDS011;10465;42.686;23.364;2023-07-28T06:46:13;7.35;;;5.18;;
20611;SDS011;10465;42.686;23.364;2023-07-28T06:48:39;6.43;;;5.22;;
20611;SDS011;10465;42.686;23.364;2023-07-28T06:51:05;8.13;;;5.43;;
20611;SDS011;10465;42.686;23.364;2023-07-28T06:53:31;5.43;;;4.63;;
20611;SDS011;10465;42.686;23.364;2023-07-28T06:55:59;7.55;;;5.25;;
20611;SDS011;10465;42.686;23.364;2023-07-28T06:58:24;9.35;;;6.90;;
20611;SDS011;10465;42.686;23.364;2023-07-28T07:00:50;9.13;;;5.75;;
20611;SDS011;10465;42.686;23.364;2023-07-28T07:03:20;7.22;;;5.95;;
20611;SDS011;10465;42.686;23.364;2023-07-28T07:05:48;6.57;;;5.35;;
20611;SDS011;10465;42.686;23.364;2023-07-28T07:08:13;6.28;;;5.38;;
20611;SDS011;10465;42.686;23.364;2023-07-28T07:10:40;8.65;;;6.35;;
20611;SDS011;10465;42.686;23.364;2023-07-28T07:13:05;8.75;;;5.60;;
20611;SDS011;10465;42.686;23.364;2023-07-28T07:15:33;7.47;;;5.28;;
20611;SDS011;10465;42.686;23.364;2023-07-28T07:17:59;8.45;;;6.72;;
20611;SDS011;10465;42.686;23.364;2023-07-28T07:20:25;5.70;;;4.90;;
20611;SDS011;10465;42.686;23.364;2023-07-28T07:22:51;6.80;;;4.75;;
20611;SDS011;10465;42.686;23.364;2023-07-28T07:25:16;7.57;;;5.20;;
20611;SDS011;10465;42.686;23.364;2023-07-28T07:27:42;7.38;;;5.07;;
20611;SDS011;10465;42.686;23.364;2023-07-28T07:30:07;7.68;;;5.13;;
20611;SDS011;10465;42.686;23.364;2023-07-28T07:32:33;7.43;;;5.35;;
20611;SDS011;10465;42.686;23.364;2023-07-28T07:34:59;6.35;;;4.43;;
20611;SDS011;10465;42.686;23.364;2023-07-28T07:37:24;6.68;;;5.07;;
20611;SDS011;10465;42.686;23.364;2023-07-28T07:39:50;6.15;;;5.38;;
20611;SDS011;10465;42.686;23.364;2023-07-28T07:42:15;6.60;;;4.72;;
20611;SDS011;10465;42.686;23.364;2023-07-28T07:44:41;5.43;;;4.65;;
20611;SDS011;10465;42.686;23.364;2023-07-28T07:47:13;4.20;;;3.80;;
20611;SDS011;10465;42.686;23.364;2023-07-28T07:49:40;6.03;;;4.25;;
20611;SDS011;10465;42.686;23.364;2023-07-28T07:52:09;7.60;;;4.43;;
20611;SDS011;10465;42.686;23.364;2023-07-28T07:54:35;5.40;;;3.97;;
20611;SDS011;10465;42.686;23.364;2023-07-28T07:57:01;6.70;;;4.15;;
20611;SDS011;10465;42.686;23.364;2023-07-28T07:59:27;5.70;;;4.53;;
20611;SDS011;10465;42.686;23.364;2023-07-28T08:01:55;4.40;;;4.00;;
20611;SDS011;10465;42.686;23.364;2023-07-28T08:04:21;4.38;;;3.75;;
20611;SDS011;10465;42.686;23.364;2023-07-28T08:06:46;6.75;;;5.40;;
20611;SDS011;10465;42.686;23.364;2023-07-28T08:09:12;5.63;;;4.70;;
20611;SDS011;10465;42.686;23.364;2023-07-28T08:11:39;4.68;;;4.18;;
20611;SDS011;10465;42.686;23.364;2023-07-28T08:14:05;5.72;;;4.28;;
20611;SDS011;10465;42.686;23.364;2023-07-28T08:16:30;4.38;;;3.97;;
20611;SDS011;10465;42.686;23.364;2023-07-28T08:18:55;7.13;;;3.95;;
20611;SDS011;10465;42.686;23.364;2023-07-28T08:21:21;6.53;;;4.80;;
20611;SDS011;10465;42.686;23.364;2023-07-28T08:23:47;4.80;;;3.70;;
20611;SDS011;10465;42.686;23.364;2023-07-28T08:26:13;6.05;;;3.58;;
20611;SDS011;10465;42.686;23.364;2023-07-28T08:28:39;4.70;;;3.90;;
20611;SDS011;10465;42.686;23.364;2023-07-28T08:31:04;4.32;;;3.70;;
20611;SDS011;10465;42.686;23.364;2023-07-28T08:33:29;5.55;;;4.05;;
20611;SDS011;10465;42.686;23.364;2023-07-28T08:35:55;3.70;;;3.40;;
20611;SDS011;10465;42.686;23.364;2023-07-28T08:38:20;3.92;;;3.47;;
20611;SDS011;10465;42.686;23.364;2023-07-28T08:40:46;6.10;;;3.50;;
20611;SDS011;10465;42.686;23.364;2023-07-28T08:43:11;3.83;;;3.53;;
20611;SDS011;10465;42.686;23.364;2023-07-28T08:45:37;7.55;;;3.80;;
20611;SDS011;10465;42.686;23.364;2023-07-28T08:48:03;4.45;;;3.50;;
20611;SDS011;10465;42.686;23.364;2023-07-28T08:50:29;4.90;;;3.50;;
20611;SDS011;10465;42.686;23.364;2023-07-28T08:52:56;4.65;;;3.38;;
20611;SDS011;10465;42.686;23.364;2023-07-28T08:55:21;5.03;;;3.25;;
20611;SDS011;10465;42.686;23.364;2023-07-28T08:57:48;4.65;;;3.20;;
20611;SDS011;10465;42.686;23.364;2023-07-28T09:00:13;5.65;;;3.30;;
20611;SDS011;10465;42.686;23.364;2023-07-28T09:02:40;5.68;;;3.42;;
20611;SDS011;10465;42.686;23.364;2023-07-28T09:05:07;4.97;;;3.33;;
20611;SDS011;10465;42.686;23.364;2023-07-28T09:07:42;5.10;;;3.40;;
20611;SDS011;10465;42.686;23.364;2023-07-28T09:10:08;4.50;;;3.30;;
20611;SDS011;10465;42.686;23.364;2023-07-28T09:12:34;6.00;;;3.28;;
20611;SDS011;10465;42.686;23.364;2023-07-28T09:14:59;6.85;;;3.60;;
20611;SDS011;10465;42.686;23.364;2023-07-28T09:17:25;6.40;;;3.42;;
20611;SDS011;10465;42.686;23.364;2023-07-28T09:19:54;6.05;;;3.85;;
20611;SDS011;10465;42.686;23.364;2023-07-28T09:22:22;4.95;;;3.40;;
20611;SDS011;10465;42.686;23.364;2023-07-28T09:24:47;7.03;;;3.75;;
20611;SDS011;10465;42.686;23.364;2023-07-28T09:27:20;6.10;;;3.20;;
20611;SDS011;10465;42.686;23.364;2023-07-28T09:29:50;5.00;;;3.88;;
20611;SDS011;10465;42.686;23.364;2023-07-28T09:32:17;5.22;;;4.15;;
20611;SDS011;10465;42.686;23.364;2023-07-28T09:35:05;10.55;;;3.75;;
20611;SDS011;10465;42.686;23.364;2023-07-28T09:37:32;4.80;;;4.30;;
20611;SDS011;10465;42.686;23.364;2023-07-28T09:39:59;8.80;;;4.15;;
20611;SDS011;10465;42.686;23.364;2023-07-28T09:42:29;5.25;;;3.47;;
20611;SDS011;10465;42.686;23.364;2023-07-28T09:44:56;5.13;;;3.85;;
20611;SDS011;10465;42.686;23.364;2023-07-28T09:47:23;4.85;;;3.60;;
20611;SDS011;10465;42.686;23.364;2023-07-28T09:49:49;3.58;;;2.83;;
20611;SDS011;10465;42.686;23.364;2023-07-28T09:52:16;4.55;;;2.95;;
20611;SDS011;10465;42.686;23.364;2023-07-28T09:54:45;6.07;;;3.72;;
20611;SDS011;10465;42.686;23.364;2023-07-28T09:57:14;5.30;;;3.97;;
20611;SDS011;10465;42.686;23.364;2023-07-28T09:59:45;5.63;;;3.33;;
20611;SDS011;10465;42.686;23.364;2023-07-28T10:02:13;4.90;;;3.33;;
20611;SDS011;10465;42.686;23.364;2023-07-28T10:04:39;5.70;;;3.92;;
20611;SDS011;10465;42.686;23.364;2023-07-28T10:07:05;4.65;;;4.00;;
20611;SDS011;10465;42.686;23.364;2023-07-28T10:09:32;4.55;;;3.50;;
20611;SDS011;10465;42.686;23.364;2023-07-28T10:12:01;6.72;;;3.40;;
20611;SDS011;10465;42.686;23.364;2023-07-28T10:14:29;6.20;;;3.30;;
20611;SDS011;10465;42.686;23.364;2023-07-28T10:16:59;8.55;;;4.25;;
20611;SDS011;10465;42.686;23.364;2023-07-28T10:19:25;7.50;;;3.33;;
20611;SDS011;10465;42.686;23.364;2023-07-28T10:22:07;7.95;;;3.58;;
20611;SDS011;10465;42.686;23.364;2023-07-28T10:30:01;5.50;;;3.80;;
20611;SDS011;10465;42.686;23.364;2023-07-28T10:32:36;4.32;;;3.70;;
20611;SDS011;10465;42.686;23.364;2023-07-28T10:37:38;9.45;;;3.90;;
20611;SDS011;10465;42.686;23.364;2023-07-28T10:43:04;6.45;;;3.95;;
20611;SDS011;10465;42.686;23.364;2023-07-28T10:45:30;8.60;;;3.78;;
20611;SDS011;10465;42.686;23.364;2023-07-28T10:47:57;29.00;;;4.63;;
20611;SDS011;10465;42.686;23.364;2023-07-28T10:50:29;23.08;;;4.80;;
20611;SDS011;10465;42.686;23.364;2023-07-28T10:52:56;26.35;;;5.55;;
20611;SDS011;10465;42.686;23.364;2023-07-28T10:55:23;15.93;;;4.70;;
20611;SDS011;10465;42.686;23.364;2023-07-28T10:57:50;15.93;;;4.18;;
20611;SDS011;10465;42.686;23.364;2023-07-28T11:00:20;6.55;;;4.13;;
20611;SDS011;10465;42.686;23.364;2023-07-28T11:02:48;7.03;;;3.67;;
20611;SDS011;10465;42.686;23.364;2023-07-28T11:05:27;9.43;;;3.95;;
20611;SDS011;10465;42.686;23.364;2023-07-28T11:07:55;5.68;;;3.30;;
20611;SDS011;10465;42.686;23.364;2023-07-28T11:10:22;4.55;;;3.25;;
20611;SDS011;10465;42.686;23.364;2023-07-28T11:12:48;7.25;;;3.60;;
20611;SDS011;10465;42.686;23.364;2023-07-28T11:15:16;8.95;;;3.88;;
20611;SDS011;10465;42.686;23.364;2023-07-28T11:17:46;5.50;;;3.45;;
20611;SDS011;10465;42.686;23.364;2023-07-28T11:20:20;6.15;;;3.65;;
20611;SDS011;10465;42.686;23.364;2023-07-28T11:23:00;3.85;;;3.45;;
20611;SDS011;10465;42.686;23.364;2023-07-28T11:25:28;6.57;;;4.05;;
20611;SDS011;10465;42.686;23.364;2023-07-28T11:27:55;4.97;;;3.38;;
20611;SDS011;10465;42.686;23.364;2023-07-28T11:30:21;3.90;;;3.25;;
20611;SDS011;10465;42.686;23.364;2023-07-28T11:32:48;7.18;;;3.33;;
20611;SDS011;10465;42.686;23.364;2023-07-28T11:35:16;4.38;;;3.47;;
20611;SDS011;10465;42.686;23.364;2023-07-28T11:37:43;6.95;;;3.80;;
20611;SDS011;10465;42.686;23.364;2023-07-28T11:40:11;4.57;;;3.28;;
20611;SDS011;10465;42.686;23.364;2023-07-28T11:42:38;4.30;;;2.90;;
20611;SDS011;10465;42.686;23.364;2023-07-28T11:45:07;7.70;;;3.38;;
20611;SDS011;10465;42.686;23.364;2023-07-28T11:47:34;3.15;;;2.85;;
20611;SDS011;10465;42.686;23.364;2023-07-28T11:50:01;3.50;;;2.80;;
20611;SDS011;10465;42.686;23.364;2023-07-28T11:52:31;4.93;;;3.22;;
20611;SDS011;10465;42.686;23.364;2023-07-28T11:54:58;4.10;;;3.20;;
20611;SDS011;10465;42.686;23.364;2023-07-28T11:57:25;5.15;;;3.55;;
20611;SDS011;10465;42.686;23.364;2023-07-28T11:59:51;4.28;;;3.13;;
20611;SDS011;10465;42.686;23.364;2023-07-28T12:02:23;4.13;;;3.65;;
20611;SDS011;10465;42.686;23.364;2023-07-28T12:04:50;4.75;;;3.20;;
20611;SDS011;10465;42.686;23.364;2023-07-28T12:07:18;6.57;;;3.63;;
20611;SDS011;10465;42.686;23.364;2023-07-28T12:12:19;7.85;;;3.22;;
20611;SDS011;10465;42.686;23.364;2023-07-28T12:14:45;3.33;;;3.03;;
20611;SDS011;10465;42.686;23.364;2023-07-28T12:17:16;3.83;;;3.30;;
20611;SDS011;10465;42.686;23.364;2023-07-28T12:19:55;5.15;;;3.55;;
20611;SDS011;10465;42.686;23.364;2023-07-28T12:22:32;3.95;;;3.22;;
20611;SDS011;10465;42.686;23.364;2023-07-28T12:24:57;3.13;;;2.85;;
20611;SDS011;10465;42.686;23.364;2023-07-28T12:27:23;3.83;;;2.70;;
20611;SDS011;10465;42.686;23.364;2023-07-28T12:29:52;4.28;;;2.90;;
20611;SDS011;10465;42.686;23.364;2023-07-28T12:32:18;3.15;;;2.85;;
20611;SDS011;10465;42.686;23.364;2023-07-28T12:34:44;5.35;;;3.15;;
20611;SDS011;10465;42.686;23.364;2023-07-28T12:37:09;3.72;;;2.90;;
20611;SDS011;10465;42.686;23.364;2023-07-28T12:39:36;4.22;;;3.08;;
20611;SDS011;10465;42.686;23.364;2023-07-28T12:42:08;4.18;;;3.13;;
20611;SDS011;10465;42.686;23.364;2023-07-28T12:44:35;3.70;;;3.22;;
20611;SDS011;10465;42.686;23.364;2023-07-28T12:47:01;4.85;;;3.17;;
20611;SDS011;10465;42.686;23.364;2023-07-28T12:49:28;3.13;;;2.83;;
20611;SDS011;10465;42.686;23.364;2023-07-28T12:51:57;4.53;;;2.95;;
20611;SDS011;10465;42.686;23.364;2023-07-28T12:54:24;5.13;;;3.05;;
20611;SDS011;10465;42.686;23.364;2023-07-28T12:56:50;3.10;;;2.80;;
20611;SDS011;10465;42.686;23.364;2023-07-28T12:59:16;4.20;;;2.97;;
20611;SDS011;10465;42.686;23.364;2023-07-28T13:01:42;2.97;;;2.75;;
20611;SDS011;10465;42.686;23.364;2023-07-28T13:04:08;3.20;;;2.90;;
20611;SDS011;10465;42.686;23.364;2023-07-28T13:06:33;3.45;;;3.00;;
20611;SDS011;10465;42.686;23.364;2023-07-28T13:08:59;3.67;;;3.35;;
20611;SDS011;10465;42.686;23.364;2023-07-28T13:11:25;2.97;;;2.75;;
20611;SDS011;10465;42.686;23.364;2023-07-28T13:13:50;3.05;;;2.80;;
20611;SDS011;10465;42.686;23.364;2023-07-28T13:16:15;2.80;;;2.60;;
20611;SDS011;10465;42.686;23.364;2023-07-28T13:18:42;2.88;;;2.58;;
20611;SDS011;10465;42.686;23.364;2023-07-28T13:21:08;3.33;;;2.97;;
20611;SDS011;10465;42.686;23.364;2023-07-28T13:23:36;4.47;;;2.63;;
20611;SDS011;10465;42.686;23.364;2023-07-28T13:26:01;5.88;;;2.70;;
20611;SDS011;10465;42.686;23.364;2023-07-28T13:28:29;10.90;;;2.58;;
20611;SDS011;10465;42.686;23.364;2023-07-28T13:30:55;3.00;;;2.80;;
20611;SDS011;10465;42.686;23.364;2023-07-28T13:33:20;2.72;;;2.53;;
20611;SDS011;10465;42.686;23.364;2023-07-28T13:35:46;3.67;;;2.85;;
20611;SDS011;10465;42.686;23.364;2023-07-28T13:38:11;2.92;;;2.63;;
20611;SDS011;10465;42.686;23.364;2023-07-28T13:40:37;3.55;;;2.53;;
20611;SDS011;10465;42.686;23.364;2023-07-28T13:43:02;3.05;;;2.75;;
20611;SDS011;10465;42.686;23.364;2023-07-28T13:45:29;2.60;;;2.40;;
20611;SDS011;10465;42.686;23.364;2023-07-28T13:47:55;2.80;;;2.60;;
20611;SDS011;10465;42.686;23.364;2023-07-28T13:50:20;4.50;;;3.17;;
